sensor_id;sensor_type;location;lat;lon;timestamp;P1;durP1;ratioP1;P2;durP2;ratioP2
67554;SDS011;54385;53.516;49.456;2024-01-25T00:02:13;1.50;;;1.00;;
67554;SDS011;54385;53.516;49.456;2024-01-25T00:04:40;1.48;;;0.90;;
67554;SDS011;54385;53.516;49.456;2024-01-25T00:07:10;1.33;;;1.00;;
67554;SDS011;54385;53.516;49.456;2024-01-25T00:09:36;1.50;;;1.10;;
67554;SDS011;54385;53.516;49.456;2024-01-25T00:12:03;1.73;;;1.10;;
67554;SDS011;54385;53.516;49.456;2024-01-25T00:14:30;1.40;;;1.17;;
67554;SDS011;54385;53.516;49.456;2024-01-25T00:16:57;1.20;;;0.90;;
67554;SDS011;54385;53.516;49.456;2024-01-25T00:19:23;1.42;;;0.93;;
67554;SDS011;54385;53.516;49.456;2024-01-25T00:21:50;2.03;;;1.30;;
67554;SDS011;54385;53.516;49.456;2024-01-25T00:24:17;1.77;;;1.00;;
67554;SDS011;54385;53.516;49.456;2024-01-25T00:26:43;1.30;;;1.00;;
67554;SDS011;54385;53.516;49.456;2024-01-25T00:29:10;1.17;;;0.80;;
67554;SDS011;54385;53.516;49.456;2024-01-25T00:31:36;1.92;;;1.10;;
67554;SDS011;54385;53.516;49.456;2024-01-25T00:34:03;1.63;;;1.00;;
67554;SDS011;54385;53.516;49.456;2024-01-25T00:36:30;1.55;;;1.00;;
67554;SDS011;54385;53.516;49.456;2024-01-25T00:38:57;1.33;;;1.05;;
67554;SDS011;54385;53.516;49.456;2024-01-25T00:41:24;1.40;;;1.00;;
67554;SDS011;54385;53.516;49.456;2024-01-25T00:43:51;1.52;;;0.98;;
67554;SDS011;54385;53.516;49.456;2024-01-25T00:46:18;1.58;;;1.10;;
67554;SDS011;54385;53.516;49.456;2024-01-25T00:48:45;1.33;;;0.93;;
67554;SDS011;54385;53.516;49.456;2024-01-25T00:51:15;1.55;;;1.15;;
67554;SDS011;54385;53.516;49.456;2024-01-25T00:53:48;2.33;;;1.17;;
67554;SDS011;54385;53.516;49.456;2024-01-25T00:56:15;1.10;;;0.77;;
67554;SDS011;54385;53.516;49.456;2024-01-25T00:58:42;1.30;;;0.90;;
67554;SDS011;54385;53.516;49.456;2024-01-25T01:01:09;0.80;;;0.77;;
67554;SDS011;54385;53.516;49.456;2024-01-25T01:03:36;1.15;;;0.90;;
67554;SDS011;54385;53.516;49.456;2024-01-25T01:06:04;1.48;;;0.93;;
67554;SDS011;54385;53.516;49.456;2024-01-25T01:08:31;1.27;;;0.90;;
67554;SDS011;54385;53.516;49.456;2024-01-25T01:11:01;1.65;;;1.00;;
67554;SDS011;54385;53.516;49.456;2024-01-25T01:13:38;0.98;;;0.88;;
67554;SDS011;54385;53.516;49.456;2024-01-25T01:16:05;1.92;;;1.13;;
67554;SDS011;54385;53.516;49.456;2024-01-25T01:18:32;1.17;;;0.75;;
67554;SDS011;54385;53.516;49.456;2024-01-25T01:20:59;1.40;;;0.88;;
67554;SDS011;54385;53.516;49.456;2024-01-25T01:23:26;1.17;;;1.02;;
67554;SDS011;54385;53.516;49.456;2024-01-25T01:25:53;1.20;;;0.98;;
67554;SDS011;54385;53.516;49.456;2024-01-25T01:28:21;1.35;;;1.00;;
67554;SDS011;54385;53.516;49.456;2024-01-25T01:30:48;1.50;;;1.00;;
67554;SDS011;54385;53.516;49.456;2024-01-25T01:33:15;1.40;;;1.02;;
67554;SDS011;54385;53.516;49.456;2024-01-25T01:35:42;1.40;;;0.93;;
67554;SDS011;54385;53.516;49.456;2024-01-25T01:38:09;2.00;;;1.00;;
67554;SDS011;54385;53.516;49.456;2024-01-25T01:40:37;1.35;;;1.05;;
67554;SDS011;54385;53.516;49.456;2024-01-25T01:43:04;1.42;;;1.08;;
67554;SDS011;54385;53.516;49.456;2024-01-25T01:45:30;1.67;;;1.33;;
67554;SDS011;54385;53.516;49.456;2024-01-25T01:47:58;1.45;;;1.00;;
67554;SDS011;54385;53.516;49.456;2024-01-25T01:50:25;1.30;;;0.85;;
67554;SDS011;54385;53.516;49.456;2024-01-25T01:52:53;1.77;;;1.00;;
67554;SDS011;54385;53.516;49.456;2024-01-25T01:55:22;1.75;;;1.13;;
67554;SDS011;54385;53.516;49.456;2024-01-25T01:57:49;2.63;;;1.20;;
67554;SDS011;54385;53.516;49.456;2024-01-25T02:00:16;1.98;;;1.00;;
67554;SDS011;54385;53.516;49.456;2024-01-25T02:02:42;1.67;;;1.00;;
67554;SDS011;54385;53.516;49.456;2024-01-25T02:05:10;1.48;;;1.05;;
67554;SDS011;54385;53.516;49.456;2024-01-25T02:07:37;1.38;;;1.02;;
67554;SDS011;54385;53.516;49.456;2024-01-25T02:10:06;1.45;;;0.95;;
67554;SDS011;54385;53.516;49.456;2024-01-25T02:12:34;1.10;;;0.85;;
67554;SDS011;54385;53.516;49.456;2024-01-25T02:15:01;1.45;;;1.00;;
67554;SDS011;54385;53.516;49.456;2024-01-25T02:17:27;1.23;;;1.05;;
67554;SDS011;54385;53.516;49.456;2024-01-25T02:19:54;1.27;;;1.00;;
67554;SDS011;54385;53.516;49.456;2024-01-25T02:22:21;1.38;;;0.95;;
67554;SDS011;54385;53.516;49.456;2024-01-25T02:24:47;1.27;;;1.00;;
67554;SDS011;54385;53.516;49.456;2024-01-25T02:27:14;3.15;;;0.80;;
67554;SDS011;54385;53.516;49.456;2024-01-25T02:29:41;1.48;;;1.02;;
67554;SDS011;54385;53.516;49.456;2024-01-25T02:32:07;1.30;;;1.00;;
67554;SDS011;54385;53.516;49.456;2024-01-25T02:34:34;1.40;;;1.13;;
67554;SDS011;54385;53.516;49.456;2024-01-25T02:37:01;1.17;;;1.05;;
67554;SDS011;54385;53.516;49.456;2024-01-25T02:39:28;1.45;;;1.00;;
67554;SDS011;54385;53.516;49.456;2024-01-25T02:41:55;1.83;;;1.25;;
67554;SDS011;54385;53.516;49.456;2024-01-25T02:44:21;1.50;;;1.00;;
67554;SDS011;54385;53.516;49.456;2024-01-25T02:46:48;1.58;;;1.08;;
67554;SDS011;54385;53.516;49.456;2024-01-25T02:49:15;1.35;;;1.10;;
67554;SDS011;54385;53.516;49.456;2024-01-25T02:51:42;1.70;;;1.17;;
67554;SDS011;54385;53.516;49.456;2024-01-25T02:54:09;1.40;;;1.08;;
67554;SDS011;54385;53.516;49.456;2024-01-25T02:56:38;1.52;;;1.05;;
67554;SDS011;54385;53.516;49.456;2024-01-25T02:59:05;2.58;;;1.40;;
67554;SDS011;54385;53.516;49.456;2024-01-25T03:01:39;2.25;;;1.90;;
67554;SDS011;54385;53.516;49.456;2024-01-25T03:04:08;2.45;;;1.90;;
67554;SDS011;54385;53.516;49.456;2024-01-25T03:06:35;4.00;;;2.42;;
67554;SDS011;54385;53.516;49.456;2024-01-25T03:09:01;3.70;;;2.22;;
67554;SDS011;54385;53.516;49.456;2024-01-25T03:11:30;3.58;;;2.53;;
67554;SDS011;54385;53.516;49.456;2024-01-25T03:13:58;3.42;;;2.58;;
67554;SDS011;54385;53.516;49.456;2024-01-25T03:16:25;3.35;;;2.30;;
67554;SDS011;54385;53.516;49.456;2024-01-25T03:18:52;3.47;;;2.88;;
67554;SDS011;54385;53.516;49.456;2024-01-25T03:21:19;3.25;;;2.55;;
67554;SDS011;54385;53.516;49.456;2024-01-25T03:23:46;3.33;;;2.80;;
67554;SDS011;54385;53.516;49.456;2024-01-25T03:26:13;3.88;;;2.65;;
67554;SDS011;54385;53.516;49.456;2024-01-25T03:28:40;3.42;;;2.30;;
67554;SDS011;54385;53.516;49.456;2024-01-25T03:31:08;3.55;;;2.53;;
67554;SDS011;54385;53.516;49.456;2024-01-25T03:33:35;3.40;;;2.58;;
67554;SDS011;54385;53.516;49.456;2024-01-25T03:38:54;4.40;;;2.58;;
67554;SDS011;54385;53.516;49.456;2024-01-25T03:41:21;4.00;;;2.47;;
67554;SDS011;54385;53.516;49.456;2024-01-25T03:43:50;3.10;;;2.40;;
67554;SDS011;54385;53.516;49.456;2024-01-25T03:46:17;3.55;;;2.25;;
67554;SDS011;54385;53.516;49.456;2024-01-25T03:48:44;4.18;;;2.58;;
67554;SDS011;54385;53.516;49.456;2024-01-25T03:51:11;4.07;;;2.13;;
67554;SDS011;54385;53.516;49.456;2024-01-25T03:53:37;4.88;;;2.80;;
67554;SDS011;54385;53.516;49.456;2024-01-25T03:56:10;4.80;;;2.40;;
67554;SDS011;54385;53.516;49.456;2024-01-25T03:58:44;3.85;;;2.30;;
67554;SDS011;54385;53.516;49.456;2024-01-25T04:01:15;3.85;;;2.05;;
67554;SDS011;54385;53.516;49.456;2024-01-25T04:03:44;4.60;;;2.00;;
67554;SDS011;54385;53.516;49.456;2024-01-25T04:06:11;4.05;;;2.10;;
67554;SDS011;54385;53.516;49.456;2024-01-25T04:11:10;3.78;;;1.88;;
67554;SDS011;54385;53.516;49.456;2024-01-25T04:13:37;4.82;;;2.40;;
67554;SDS011;54385;53.516;49.456;2024-01-25T04:16:04;3.97;;;1.98;;
67554;SDS011;54385;53.516;49.456;2024-01-25T04:18:33;3.67;;;1.67;;
67554;SDS011;54385;53.516;49.456;2024-01-25T04:21:00;2.67;;;1.73;;
67554;SDS011;54385;53.516;49.456;2024-01-25T04:23:29;4.10;;;1.83;;
67554;SDS011;54385;53.516;49.456;2024-01-25T04:25:57;5.13;;;1.75;;
67554;SDS011;54385;53.516;49.456;2024-01-25T04:28:30;5.47;;;2.03;;
67554;SDS011;54385;53.516;49.456;2024-01-25T04:30:56;2.95;;;1.80;;
67554;SDS011;54385;53.516;49.456;2024-01-25T04:33:23;3.40;;;1.80;;
67554;SDS011;54385;53.516;49.456;2024-01-25T04:35:59;4.88;;;2.50;;
67554;SDS011;54385;53.516;49.456;2024-01-25T04:38:26;2.97;;;1.67;;
67554;SDS011;54385;53.516;49.456;2024-01-25T04:40:59;3.08;;;1.92;;
67554;SDS011;54385;53.516;49.456;2024-01-25T04:43:29;4.68;;;1.73;;
67554;SDS011;54385;53.516;49.456;2024-01-25T04:46:02;3.90;;;1.90;;
67554;SDS011;54385;53.516;49.456;2024-01-25T04:48:29;3.92;;;1.67;;
67554;SDS011;54385;53.516;49.456;2024-01-25T04:50:57;4.50;;;1.65;;
67554;SDS011;54385;53.516;49.456;2024-01-25T04:53:47;3.25;;;2.30;;
67554;SDS011;54385;53.516;49.456;2024-01-25T04:56:20;2.60;;;1.70;;
67554;SDS011;54385;53.516;49.456;2024-01-25T04:58:57;3.80;;;2.00;;
67554;SDS011;54385;53.516;49.456;2024-01-25T05:04:28;3.25;;;1.70;;
67554;SDS011;54385;53.516;49.456;2024-01-25T05:10:30;3.55;;;1.73;;
67554;SDS011;54385;53.516;49.456;2024-01-25T05:13:25;4.57;;;1.77;;
67554;SDS011;54385;53.516;49.456;2024-01-25T05:15:54;3.05;;;1.83;;
67554;SDS011;54385;53.516;49.456;2024-01-25T05:18:24;3.15;;;1.92;;
67554;SDS011;54385;53.516;49.456;2024-01-25T05:20:53;2.83;;;1.67;;
67554;SDS011;54385;53.516;49.456;2024-01-25T05:23:55;2.97;;;1.77;;
67554;SDS011;54385;53.516;49.456;2024-01-25T05:26:21;3.33;;;2.00;;
67554;SDS011;54385;53.516;49.456;2024-01-25T05:28:57;2.53;;;1.63;;
67554;SDS011;54385;53.516;49.456;2024-01-25T05:34:28;3.65;;;1.92;;
67554;SDS011;54385;53.516;49.456;2024-01-25T05:36:57;4.22;;;1.95;;
67554;SDS011;54385;53.516;49.456;2024-01-25T05:39:46;3.58;;;1.88;;
67554;SDS011;54385;53.516;49.456;2024-01-25T05:42:16;2.63;;;1.88;;
67554;SDS011;54385;53.516;49.456;2024-01-25T05:44:44;3.00;;;1.70;;
67554;SDS011;54385;53.516;49.456;2024-01-25T05:47:10;4.43;;;1.92;;
67554;SDS011;54385;53.516;49.456;2024-01-25T05:49:39;3.70;;;2.17;;
67554;SDS011;54385;53.516;49.456;2024-01-25T05:52:34;2.95;;;2.00;;
67554;SDS011;54385;53.516;49.456;2024-01-25T05:55:03;4.28;;;2.20;;
67554;SDS011;54385;53.516;49.456;2024-01-25T05:57:31;3.85;;;2.30;;
67554;SDS011;54385;53.516;49.456;2024-01-25T06:00:03;2.80;;;1.95;;
67554;SDS011;54385;53.516;49.456;2024-01-25T06:02:34;4.95;;;2.10;;
67554;SDS011;54385;53.516;49.456;2024-01-25T06:05:01;4.78;;;2.60;;
67554;SDS011;54385;53.516;49.456;2024-01-25T06:11:00;3.47;;;2.13;;
67554;SDS011;54385;53.516;49.456;2024-01-25T06:13:30;5.03;;;2.45;;
67554;SDS011;54385;53.516;49.456;2024-01-25T06:16:00;4.22;;;2.20;;
67554;SDS011;54385;53.516;49.456;2024-01-25T06:18:27;4.85;;;2.40;;
67554;SDS011;54385;53.516;49.456;2024-01-25T06:20:56;5.18;;;2.00;;
67554;SDS011;54385;53.516;49.456;2024-01-25T06:23:25;3.55;;;2.25;;
67554;SDS011;54385;53.516;49.456;2024-01-25T06:25:52;4.15;;;2.58;;
67554;SDS011;54385;53.516;49.456;2024-01-25T06:28:19;3.80;;;2.28;;
67554;SDS011;54385;53.516;49.456;2024-01-25T06:30:46;5.10;;;2.75;;
67554;SDS011;54385;53.516;49.456;2024-01-25T06:33:16;3.83;;;2.30;;
67554;SDS011;54385;53.516;49.456;2024-01-25T06:35:43;5.93;;;2.40;;
67554;SDS011;54385;53.516;49.456;2024-01-25T06:38:10;4.45;;;2.53;;
67554;SDS011;54385;53.516;49.456;2024-01-25T06:40:37;4.30;;;2.65;;
67554;SDS011;54385;53.516;49.456;2024-01-25T06:43:04;4.88;;;2.63;;
67554;SDS011;54385;53.516;49.456;2024-01-25T06:45:31;4.55;;;2.40;;
67554;SDS011;54385;53.516;49.456;2024-01-25T06:47:58;3.60;;;2.33;;
67554;SDS011;54385;53.516;49.456;2024-01-25T06:50:30;3.88;;;2.55;;
67554;SDS011;54385;53.516;49.456;2024-01-25T06:53:06;3.75;;;2.38;;
67554;SDS011;54385;53.516;49.456;2024-01-25T06:55:36;4.18;;;2.33;;
67554;SDS011;54385;53.516;49.456;2024-01-25T06:58:03;4.18;;;2.33;;
67554;SDS011;54385;53.516;49.456;2024-01-25T07:00:32;5.07;;;3.13;;
67554;SDS011;54385;53.516;49.456;2024-01-25T07:03:14;4.03;;;2.53;;
67554;SDS011;54385;53.516;49.456;2024-01-25T07:05:41;4.25;;;2.70;;
67554;SDS011;54385;53.516;49.456;2024-01-25T07:08:11;4.10;;;2.78;;
67554;SDS011;54385;53.516;49.456;2024-01-25T07:10:42;4.10;;;2.65;;
67554;SDS011;54385;53.516;49.456;2024-01-25T07:13:18;4.28;;;2.60;;
67554;SDS011;54385;53.516;49.456;2024-01-25T07:15:47;4.88;;;2.60;;
67554;SDS011;54385;53.516;49.456;2024-01-25T07:18:24;4.45;;;2.97;;
67554;SDS011;54385;53.516;49.456;2024-01-25T07:20:57;3.70;;;2.92;;
67554;SDS011;54385;53.516;49.456;2024-01-25T07:23:30;9.10;;;3.35;;
67554;SDS011;54385;53.516;49.456;2024-01-25T07:26:18;4.47;;;2.72;;
67554;SDS011;54385;53.516;49.456;2024-01-25T07:28:49;5.45;;;3.28;;
67554;SDS011;54385;53.516;49.456;2024-01-25T07:31:28;7.30;;;3.10;;
67554;SDS011;54385;53.516;49.456;2024-01-25T07:34:49;4.97;;;3.08;;
67554;SDS011;54385;53.516;49.456;2024-01-25T07:37:28;4.50;;;2.90;;
67554;SDS011;54385;53.516;49.456;2024-01-25T07:39:58;3.20;;;2.42;;
67554;SDS011;54385;53.516;49.456;2024-01-25T07:42:47;5.05;;;3.05;;
67554;SDS011;54385;53.516;49.456;2024-01-25T07:45:43;4.90;;;3.15;;
67554;SDS011;54385;53.516;49.456;2024-01-25T07:48:14;5.07;;;2.92;;
67554;SDS011;54385;53.516;49.456;2024-01-25T07:50:45;5.13;;;2.92;;
67554;SDS011;54385;53.516;49.456;2024-01-25T07:53:14;4.63;;;2.90;;
67554;SDS011;54385;53.516;49.456;2024-01-25T07:55:43;5.60;;;3.03;;
67554;SDS011;54385;53.516;49.456;2024-01-25T07:58:14;4.07;;;2.75;;
67554;SDS011;54385;53.516;49.456;2024-01-25T08:00:47;6.20;;;3.38;;
67554;SDS011;54385;53.516;49.456;2024-01-25T08:03:17;4.88;;;3.17;;
67554;SDS011;54385;53.516;49.456;2024-01-25T08:05:44;4.97;;;2.90;;
67554;SDS011;54385;53.516;49.456;2024-01-25T08:08:11;5.10;;;3.30;;
67554;SDS011;54385;53.516;49.456;2024-01-25T08:10:41;4.47;;;3.03;;
67554;SDS011;54385;53.516;49.456;2024-01-25T08:13:12;5.20;;;3.10;;
67554;SDS011;54385;53.516;49.456;2024-01-25T08:15:40;4.55;;;3.10;;
67554;SDS011;54385;53.516;49.456;2024-01-25T08:21:32;4.20;;;2.75;;
67554;SDS011;54385;53.516;49.456;2024-01-25T08:24:23;4.68;;;3.13;;
67554;SDS011;54385;53.516;49.456;2024-01-25T08:27:05;4.65;;;3.08;;
67554;SDS011;54385;53.516;49.456;2024-01-25T08:29:33;4.93;;;3.15;;
67554;SDS011;54385;53.516;49.456;2024-01-25T08:32:10;5.32;;;3.28;;
67554;SDS011;54385;53.516;49.456;2024-01-25T08:34:43;4.78;;;3.10;;
67554;SDS011;54385;53.516;49.456;2024-01-25T08:37:36;4.28;;;3.22;;
67554;SDS011;54385;53.516;49.456;2024-01-25T08:40:07;5.22;;;3.30;;
67554;SDS011;54385;53.516;49.456;2024-01-25T08:42:38;5.35;;;3.17;;
67554;SDS011;54385;53.516;49.456;2024-01-25T08:48:33;4.82;;;3.53;;
67554;SDS011;54385;53.516;49.456;2024-01-25T08:51:21;5.22;;;3.35;;
67554;SDS011;54385;53.516;49.456;2024-01-25T08:53:48;5.38;;;3.53;;
67554;SDS011;54385;53.516;49.456;2024-01-25T08:56:23;5.45;;;3.40;;
67554;SDS011;54385;53.516;49.456;2024-01-25T08:58:54;4.97;;;3.35;;
67554;SDS011;54385;53.516;49.456;2024-01-25T09:01:20;5.10;;;3.58;;
67554;SDS011;54385;53.516;49.456;2024-01-25T09:03:53;7.00;;;3.47;;
67554;SDS011;54385;53.516;49.456;2024-01-25T09:06:23;7.10;;;3.50;;
67554;SDS011;54385;53.516;49.456;2024-01-25T09:08:50;4.45;;;3.30;;
67554;SDS011;54385;53.516;49.456;2024-01-25T09:11:17;5.25;;;3.53;;
67554;SDS011;54385;53.516;49.456;2024-01-25T09:13:45;6.55;;;3.08;;
67554;SDS011;54385;53.516;49.456;2024-01-25T09:16:15;8.85;;;3.60;;
67554;SDS011;54385;53.516;49.456;2024-01-25T09:18:45;5.22;;;3.38;;
67554;SDS011;54385;53.516;49.456;2024-01-25T09:21:14;4.50;;;2.85;;
67554;SDS011;54385;53.516;49.456;2024-01-25T09:23:46;5.25;;;2.78;;
67554;SDS011;54385;53.516;49.456;2024-01-25T09:26:17;5.00;;;3.13;;
67554;SDS011;54385;53.516;49.456;2024-01-25T09:28:44;5.20;;;3.22;;
67554;SDS011;54385;53.516;49.456;2024-01-25T09:31:10;3.88;;;2.92;;
67554;SDS011;54385;53.516;49.456;2024-01-25T09:33:37;4.95;;;3.10;;
67554;SDS011;54385;53.516;49.456;2024-01-25T09:36:07;3.90;;;2.80;;
67554;SDS011;54385;53.516;49.456;2024-01-25T09:38:34;4.07;;;3.05;;
67554;SDS011;54385;53.516;49.456;2024-01-25T09:41:04;4.90;;;3.03;;
67554;SDS011;54385;53.516;49.456;2024-01-25T09:43:31;4.07;;;2.47;;
67554;SDS011;54385;53.516;49.456;2024-01-25T09:46:02;5.10;;;2.83;;
67554;SDS011;54385;53.516;49.456;2024-01-25T09:48:33;4.05;;;3.03;;
67554;SDS011;54385;53.516;49.456;2024-01-25T09:51:00;5.20;;;2.67;;
67554;SDS011;54385;53.516;49.456;2024-01-25T09:53:54;4.65;;;2.88;;
67554;SDS011;54385;53.516;49.456;2024-01-25T09:56:24;3.95;;;2.83;;
67554;SDS011;54385;53.516;49.456;2024-01-25T09:59:10;5.75;;;3.00;;
67554;SDS011;54385;53.516;49.456;2024-01-25T10:01:37;4.05;;;3.20;;
67554;SDS011;54385;53.516;49.456;2024-01-25T10:04:06;4.72;;;3.15;;
67554;SDS011;54385;53.516;49.456;2024-01-25T10:06:39;5.85;;;3.67;;
67554;SDS011;54385;53.516;49.456;2024-01-25T10:15:19;4.65;;;3.15;;
67554;SDS011;54385;53.516;49.456;2024-01-25T10:17:47;4.00;;;3.13;;
67554;SDS011;54385;53.516;49.456;2024-01-25T10:20:14;4.18;;;3.33;;
67554;SDS011;54385;53.516;49.456;2024-01-25T10:22:44;4.93;;;3.60;;
67554;SDS011;54385;53.516;49.456;2024-01-25T10:25:14;4.22;;;3.03;;
67554;SDS011;54385;53.516;49.456;2024-01-25T10:27:57;5.78;;;3.70;;
67554;SDS011;54385;53.516;49.456;2024-01-25T10:30:56;5.63;;;3.53;;
67554;SDS011;54385;53.516;49.456;2024-01-25T10:33:44;5.13;;;3.33;;
67554;SDS011;54385;53.516;49.456;2024-01-25T10:36:13;5.97;;;3.90;;
67554;SDS011;54385;53.516;49.456;2024-01-25T10:38:41;5.97;;;3.63;;
67554;SDS011;54385;53.516;49.456;2024-01-25T10:41:17;5.15;;;3.63;;
67554;SDS011;54385;53.516;49.456;2024-01-25T10:44:26;4.80;;;3.20;;
67554;SDS011;54385;53.516;49.456;2024-01-25T10:50:13;4.85;;;3.15;;
67554;SDS011;54385;53.516;49.456;2024-01-25T10:52:40;6.85;;;3.60;;
67554;SDS011;54385;53.516;49.456;2024-01-25T10:55:09;5.82;;;3.65;;
67554;SDS011;54385;53.516;49.456;2024-01-25T10:57:42;4.70;;;3.25;;
67554;SDS011;54385;53.516;49.456;2024-01-25T11:00:40;5.47;;;3.47;;
67554;SDS011;54385;53.516;49.456;2024-01-25T11:03:08;6.20;;;3.40;;
67554;SDS011;54385;53.516;49.456;2024-01-25T11:09:25;4.20;;;3.20;;
67554;SDS011;54385;53.516;49.456;2024-01-25T11:12:01;4.65;;;3.33;;
67554;SDS011;54385;53.516;49.456;2024-01-25T11:14:38;4.85;;;3.25;;
67554;SDS011;54385;53.516;49.456;2024-01-25T11:17:23;3.83;;;2.97;;
67554;SDS011;54385;53.516;49.456;2024-01-25T11:19:53;4.95;;;3.28;;
67554;SDS011;54385;53.516;49.456;2024-01-25T11:22:21;3.85;;;2.88;;
67554;SDS011;54385;53.516;49.456;2024-01-25T11:24:48;4.15;;;2.92;;
67554;SDS011;54385;53.516;49.456;2024-01-25T11:27:21;3.85;;;2.90;;
67554;SDS011;54385;53.516;49.456;2024-01-25T11:29:51;5.35;;;3.08;;
67554;SDS011;54385;53.516;49.456;2024-01-25T11:32:28;4.28;;;2.95;;
67554;SDS011;54385;53.516;49.456;2024-01-25T11:35:24;4.18;;;3.10;;
67554;SDS011;54385;53.516;49.456;2024-01-25T11:37:54;4.28;;;3.33;;
67554;SDS011;54385;53.516;49.456;2024-01-25T11:40:33;4.40;;;3.13;;
67554;SDS011;54385;53.516;49.456;2024-01-25T11:43:02;4.53;;;3.28;;
67554;SDS011;54385;53.516;49.456;2024-01-25T11:45:37;5.82;;;3.67;;
67554;SDS011;54385;53.516;49.456;2024-01-25T11:48:18;5.50;;;3.67;;
67554;SDS011;54385;53.516;49.456;2024-01-25T11:51:11;4.13;;;3.03;;
67554;SDS011;54385;53.516;49.456;2024-01-25T11:53:38;6.97;;;2.88;;
67554;SDS011;54385;53.516;49.456;2024-01-25T11:56:40;4.28;;;3.10;;
67554;SDS011;54385;53.516;49.456;2024-01-25T11:59:10;4.43;;;3.00;;
67554;SDS011;54385;53.516;49.456;2024-01-25T12:05:03;4.13;;;2.92;;
67554;SDS011;54385;53.516;49.456;2024-01-25T12:07:38;5.03;;;3.55;;
67554;SDS011;54385;53.516;49.456;2024-01-25T12:10:15;3.97;;;2.90;;
67554;SDS011;54385;53.516;49.456;2024-01-25T12:13:13;4.57;;;3.08;;
67554;SDS011;54385;53.516;49.456;2024-01-25T12:15:40;3.60;;;2.65;;
67554;SDS011;54385;53.516;49.456;2024-01-25T12:18:24;4.45;;;3.10;;
67554;SDS011;54385;53.516;49.456;2024-01-25T12:21:01;4.40;;;3.05;;
67554;SDS011;54385;53.516;49.456;2024-01-25T12:23:42;4.30;;;2.70;;
67554;SDS011;54385;53.516;49.456;2024-01-25T12:29:39;4.70;;;3.00;;
67554;SDS011;54385;53.516;49.456;2024-01-25T12:39:00;3.50;;;2.50;;
67554;SDS011;54385;53.516;49.456;2024-01-25T12:41:40;3.47;;;3.03;;
67554;SDS011;54385;53.516;49.456;2024-01-25T12:44:31;3.92;;;3.08;;
67554;SDS011;54385;53.516;49.456;2024-01-25T12:46:59;3.50;;;2.90;;
67554;SDS011;54385;53.516;49.456;2024-01-25T12:49:31;3.17;;;2.70;;
67554;SDS011;54385;53.516;49.456;2024-01-25T12:54:48;3.85;;;2.78;;
67554;SDS011;54385;53.516;49.456;2024-01-25T12:57:18;4.93;;;3.35;;
67554;SDS011;54385;53.516;49.456;2024-01-25T12:59:51;4.35;;;2.80;;
67554;SDS011;54385;53.516;49.456;2024-01-25T13:02:38;3.42;;;2.88;;
67554;SDS011;54385;53.516;49.456;2024-01-25T13:05:16;3.40;;;2.90;;
67554;SDS011;54385;53.516;49.456;2024-01-25T13:07:49;4.15;;;3.03;;
67554;SDS011;54385;53.516;49.456;2024-01-25T13:10:46;3.20;;;2.70;;
67554;SDS011;54385;53.516;49.456;2024-01-25T13:13:14;4.28;;;3.00;;
67554;SDS011;54385;53.516;49.456;2024-01-25T13:15:41;3.25;;;2.63;;
67554;SDS011;54385;53.516;49.456;2024-01-25T13:18:38;3.95;;;2.90;;
67554;SDS011;54385;53.516;49.456;2024-01-25T13:21:25;3.30;;;2.40;;
67554;SDS011;54385;53.516;49.456;2024-01-25T13:23:55;3.75;;;2.90;;
67554;SDS011;54385;53.516;49.456;2024-01-25T13:26:22;3.40;;;2.35;;
67554;SDS011;54385;53.516;49.456;2024-01-25T13:28:49;3.70;;;2.75;;
67554;SDS011;54385;53.516;49.456;2024-01-25T13:31:16;3.88;;;2.75;;
67554;SDS011;54385;53.516;49.456;2024-01-25T13:33:42;4.22;;;3.13;;
67554;SDS011;54385;53.516;49.456;2024-01-25T13:36:17;3.42;;;2.50;;
67554;SDS011;54385;53.516;49.456;2024-01-25T13:38:46;3.83;;;2.80;;
67554;SDS011;54385;53.516;49.456;2024-01-25T13:41:14;3.78;;;2.53;;
67554;SDS011;54385;53.516;49.456;2024-01-25T13:44:03;3.50;;;2.70;;
67554;SDS011;54385;53.516;49.456;2024-01-25T13:46:31;4.07;;;2.35;;
67554;SDS011;54385;53.516;49.456;2024-01-25T13:48:58;2.60;;;2.40;;
67554;SDS011;54385;53.516;49.456;2024-01-25T13:51:26;4.90;;;2.97;;
67554;SDS011;54385;53.516;49.456;2024-01-25T13:53:56;3.50;;;2.58;;
67554;SDS011;54385;53.516;49.456;2024-01-25T13:56:24;3.35;;;2.50;;
67554;SDS011;54385;53.516;49.456;2024-01-25T13:59:05;3.65;;;2.65;;
67554;SDS011;54385;53.516;49.456;2024-01-25T14:01:32;3.97;;;2.78;;
67554;SDS011;54385;53.516;49.456;2024-01-25T14:04:10;3.85;;;2.60;;
67554;SDS011;54385;53.516;49.456;2024-01-25T14:06:39;3.60;;;2.60;;
67554;SDS011;54385;53.516;49.456;2024-01-25T14:09:07;3.60;;;2.80;;
67554;SDS011;54385;53.516;49.456;2024-01-25T14:11:37;3.45;;;2.58;;
67554;SDS011;54385;53.516;49.456;2024-01-25T14:14:05;3.80;;;2.70;;
67554;SDS011;54385;53.516;49.456;2024-01-25T14:16:32;3.90;;;2.65;;
67554;SDS011;54385;53.516;49.456;2024-01-25T14:19:01;3.13;;;2.50;;
67554;SDS011;54385;53.516;49.456;2024-01-25T14:21:30;3.75;;;2.72;;
67554;SDS011;54385;53.516;49.456;2024-01-25T14:24:00;3.50;;;2.72;;
67554;SDS011;54385;53.516;49.456;2024-01-25T14:26:28;3.70;;;2.55;;
67554;SDS011;54385;53.516;49.456;2024-01-25T14:28:55;3.05;;;2.42;;
67554;SDS011;54385;53.516;49.456;2024-01-25T14:31:40;4.15;;;2.55;;
67554;SDS011;54385;53.516;49.456;2024-01-25T14:34:07;3.78;;;2.88;;
67554;SDS011;54385;53.516;49.456;2024-01-25T14:36:41;4.07;;;2.63;;
67554;SDS011;54385;53.516;49.456;2024-01-25T14:39:08;3.72;;;2.63;;
67554;SDS011;54385;53.516;49.456;2024-01-25T14:41:35;3.35;;;2.38;;
67554;SDS011;54385;53.516;49.456;2024-01-25T14:44:02;3.47;;;2.30;;
67554;SDS011;54385;53.516;49.456;2024-01-25T14:46:32;3.05;;;2.50;;
67554;SDS011;54385;53.516;49.456;2024-01-25T14:49:02;3.70;;;2.72;;
67554;SDS011;54385;53.516;49.456;2024-01-25T14:51:38;3.65;;;2.42;;
67554;SDS011;54385;53.516;49.456;2024-01-25T14:54:05;3.13;;;2.42;;
67554;SDS011;54385;53.516;49.456;2024-01-25T14:56:38;3.42;;;2.42;;
67554;SDS011;54385;53.516;49.456;2024-01-25T14:59:05;3.17;;;2.40;;
67554;SDS011;54385;53.516;49.456;2024-01-25T15:01:31;3.53;;;2.50;;
67554;SDS011;54385;53.516;49.456;2024-01-25T15:03:58;3.35;;;2.45;;
67554;SDS011;54385;53.516;49.456;2024-01-25T15:06:25;3.05;;;2.25;;
67554;SDS011;54385;53.516;49.456;2024-01-25T15:08:57;2.95;;;2.22;;
67554;SDS011;54385;53.516;49.456;2024-01-25T15:14:10;3.03;;;2.40;;
67554;SDS011;54385;53.516;49.456;2024-01-25T15:16:39;2.80;;;2.38;;
67554;SDS011;54385;53.516;49.456;2024-01-25T15:19:09;3.47;;;2.20;;
67554;SDS011;54385;53.516;49.456;2024-01-25T15:21:36;3.45;;;2.20;;
67554;SDS011;54385;53.516;49.456;2024-01-25T15:24:10;3.53;;;2.70;;
67554;SDS011;54385;53.516;49.456;2024-01-25T15:26:43;3.00;;;2.10;;
67554;SDS011;54385;53.516;49.456;2024-01-25T15:29:12;2.63;;;2.10;;
67554;SDS011;54385;53.516;49.456;2024-01-25T15:31:39;2.75;;;2.08;;
67554;SDS011;54385;53.516;49.456;2024-01-25T15:34:06;2.78;;;2.22;;
67554;SDS011;54385;53.516;49.456;2024-01-25T15:36:33;2.85;;;2.20;;
67554;SDS011;54385;53.516;49.456;2024-01-25T15:39:01;2.75;;;2.20;;
67554;SDS011;54385;53.516;49.456;2024-01-25T15:41:29;3.55;;;2.70;;
67554;SDS011;54385;53.516;49.456;2024-01-25T15:43:59;3.25;;;2.10;;
67554;SDS011;54385;53.516;49.456;2024-01-25T15:46:30;2.53;;;2.20;;
67554;SDS011;54385;53.516;49.456;2024-01-25T15:48:59;3.08;;;2.17;;
67554;SDS011;54385;53.516;49.456;2024-01-25T15:51:27;2.17;;;1.98;;
67554;SDS011;54385;53.516;49.456;2024-01-25T15:53:53;2.55;;;2.17;;
67554;SDS011;54385;53.516;49.456;2024-01-25T15:56:20;2.75;;;2.25;;